createdAt,value
2023-03-23T00:11:33.000Z,12.7
2023-03-23T00:26:54.000Z,12.4
2023-03-23T00:42:15.888Z,12.6
2023-03-23T00:57:36.845Z,12.7
2023-03-23T01:12:57.826Z,12.5
2023-03-23T01:28:18.774Z,12.6
2023-03-23T01:43:39.748Z,12.4
2023-03-23T01:58:59.731Z,12
2023-03-23T02:14:20.000Z,12.3
2023-03-23T02:29:41.639Z,12.4
2023-03-23T02:45:02.000Z,12.5
2023-03-23T03:00:23.577Z,12.6
2023-03-23T03:15:44.533Z,12.5
2023-03-23T03:31:05.490Z,12.3
2023-03-23T03:46:26.466Z,12.3
2023-03-23T04:01:47.416Z,12.4
2023-03-23T04:17:08.390Z,12.9
2023-03-23T04:32:29.348Z,13.2
2023-03-23T04:47:50.316Z,12.7
2023-03-23T05:03:11.244Z,12.8
2023-03-23T05:18:31.161Z,12.9
2023-03-23T05:33:52.089Z,12.9
2023-03-23T05:49:13.015Z,12.8
2023-03-23T06:04:33.928Z,12.5
2023-03-23T06:19:54.000Z,12.6
2023-03-23T06:35:15.770Z,12.4
2023-03-23T06:50:36.695Z,12.3
2023-03-23T07:05:57.602Z,12.1
2023-03-23T07:21:18.529Z,12.4
2023-03-23T07:36:39.445Z,12.4
2023-03-23T07:52:00.374Z,12.6
2023-03-23T08:07:21.299Z,12.7
2023-03-23T08:22:42.211Z,13.1
2023-03-23T08:38:02.151Z,13
2023-03-23T08:53:23.000Z,12.9
2023-03-23T09:08:43.997Z,13.8
2023-03-23T09:24:04.903Z,14.2
2023-03-23T09:39:25.000Z,14.7
2023-03-23T09:54:46.738Z,15
2023-03-23T10:10:07.671Z,15.1
2023-03-23T10:25:28.579Z,15.2
2023-03-23T10:40:49.508Z,15.4
2023-03-23T10:42:10.575Z,15.5
2023-03-23T10:43:31.647Z,15.5
2023-03-23T10:44:52.000Z,15.6
2023-03-23T10:46:13.775Z,15.7
2023-03-23T10:47:33.865Z,15.7
2023-03-23T10:48:54.916Z,15.8
2023-03-23T10:50:15.984Z,15.6
2023-03-23T10:51:37.000Z,15.6
2023-03-23T10:52:58.131Z,15.6
2023-03-23T10:54:19.171Z,15.7
2023-03-23T10:55:40.245Z,15.6
2023-03-23T10:57:01.324Z,15.6
2023-03-23T10:58:22.380Z,15.7
2023-03-23T10:59:43.448Z,15.7
2023-03-23T11:01:04.525Z,15.6
2023-03-23T11:02:25.599Z,15.7
2023-03-23T11:03:46.648Z,15.7
2023-03-23T11:05:06.740Z,15.6
2023-03-23T11:06:27.801Z,15.6
2023-03-23T11:07:48.000Z,15.7
2023-03-23T11:09:09.927Z,15.7
2023-03-23T11:10:31.003Z,15.7
2023-03-23T11:11:52.061Z,15.6
2023-03-23T11:13:13.143Z,15.6
2023-03-23T11:14:34.195Z,15.7
2023-03-23T11:15:55.000Z,15.7
2023-03-23T11:17:16.328Z,15.8
2023-03-23T11:18:37.393Z,15.7
2023-03-23T11:19:58.452Z,15.9
2023-03-23T11:21:19.519Z,15.9
2023-03-23T11:22:39.612Z,16
2023-03-23T11:24:00.693Z,16
2023-03-23T11:25:21.000Z,16.2
2023-03-23T11:26:42.819Z,16.2
2023-03-23T11:28:03.880Z,16.2
2023-03-23T11:29:24.949Z,16.3
2023-03-23T11:30:46.012Z,16.3
2023-03-23T11:32:07.090Z,16.2
2023-03-23T11:33:28.146Z,16.2
2023-03-23T11:34:49.210Z,16.3
2023-03-23T11:36:10.000Z,16.2
2023-03-23T11:37:31.340Z,16.3
2023-03-23T11:38:52.423Z,16.3
2023-03-23T11:40:12.494Z,16.2
2023-03-23T11:41:33.573Z,16
2023-03-23T11:44:15.704Z,15.9
2023-03-23T11:45:36.756Z,15.8
2023-03-23T11:46:57.000Z,15.7
2023-03-23T11:48:18.889Z,15.7
2023-03-23T11:49:39.951Z,15.6
2023-03-23T11:52:22.090Z,15.5
2023-03-23T11:53:43.155Z,15.6
2023-03-23T11:55:04.218Z,15.6
2023-03-23T11:56:25.000Z,15.6
2023-03-23T11:57:45.369Z,15.6
2023-03-23T11:59:06.461Z,15.7
2023-03-23T12:00:27.000Z,15.6
2023-03-23T12:01:48.593Z,15.6
2023-03-23T12:03:09.659Z,15.6
2023-03-23T12:04:30.710Z,15.7
2023-03-23T12:05:51.000Z,15.7
2023-03-23T12:07:12.860Z,15.8
2023-03-23T12:08:33.906Z,15.8
2023-03-23T12:09:54.983Z,15.8
2023-03-23T12:11:16.052Z,15.8
2023-03-23T12:12:37.108Z,15.9
2023-03-23T12:13:58.187Z,15.9
2023-03-23T12:15:18.245Z,15.7
2023-03-23T12:16:39.322Z,15.8
2023-03-23T12:18:00.392Z,15.9
2023-03-23T12:19:21.452Z,15.8
2023-03-23T12:20:42.525Z,15.9
2023-03-23T12:22:03.608Z,15.8
2023-03-23T12:23:24.673Z,15.9
2023-03-23T12:24:45.715Z,16
2023-03-23T12:26:06.808Z,16
2023-03-23T12:27:27.887Z,16.1
2023-03-23T12:28:48.938Z,16
2023-03-23T12:30:10.013Z,16
2023-03-23T12:31:31.062Z,16.2
2023-03-23T12:32:51.138Z,16.3
2023-03-23T12:34:12.230Z,16.4
2023-03-23T12:35:33.290Z,16.5
2023-03-23T12:36:54.342Z,16.5
2023-03-23T12:38:15.422Z,16.6
2023-03-23T12:39:36.499Z,16.6
2023-03-23T12:40:57.554Z,16.7
2023-03-23T12:42:18.608Z,16.8
2023-03-23T12:43:39.699Z,16.8
2023-03-23T12:45:00.778Z,17.1
2023-03-23T12:46:21.841Z,17.7
2023-03-23T12:47:42.913Z,18.1
2023-03-23T12:49:03.985Z,18.5
2023-03-23T12:50:24.063Z,18.3
2023-03-23T12:51:45.139Z,17.9
2023-03-23T12:53:06.226Z,17.6
2023-03-23T12:54:27.285Z,17.3
2023-03-23T12:55:48.363Z,17.5
2023-03-23T12:57:09.420Z,18.2
2023-03-23T12:58:30.497Z,18.2
2023-03-23T12:59:51.561Z,18.2
2023-03-23T13:01:12.643Z,18.3
2023-03-23T13:02:33.715Z,17.9
2023-03-23T13:03:54.791Z,18.2
2023-03-23T13:05:15.837Z,19
2023-03-23T13:06:36.921Z,19.1
2023-03-23T13:07:57.005Z,19
2023-03-23T13:09:18.077Z,18.8
2023-03-23T13:10:39.000Z,18.1
2023-03-23T13:12:00.227Z,17.5
2023-03-23T13:13:21.000Z,17.2
2023-03-23T13:16:03.000Z,16.8
2023-03-23T13:17:24.513Z,16.6
2023-03-23T13:18:45.584Z,16.4
2023-03-23T13:20:06.628Z,16.3
2023-03-23T13:21:27.716Z,16.1
2023-03-23T13:22:48.759Z,16
2023-03-23T13:24:09.826Z,16
2023-03-23T13:25:29.939Z,15.9
2023-03-23T13:26:50.987Z,15.8
2023-03-23T13:28:12.066Z,15.8
2023-03-23T13:29:33.120Z,15.7
2023-03-23T13:30:54.202Z,15.8
2023-03-23T13:32:15.000Z,15.8
2023-03-23T13:33:36.315Z,15.8
2023-03-23T13:34:57.000Z,15.6
2023-03-23T13:36:18.451Z,15.6
2023-03-23T13:37:39.502Z,15.6
2023-03-23T13:39:00.570Z,15.5
2023-03-23T13:40:21.648Z,15.6
2023-03-23T13:41:42.000Z,15.5
2023-03-23T13:43:02.781Z,15.5
2023-03-23T13:44:23.864Z,15.5
2023-03-23T13:45:44.913Z,15.5
2023-03-23T13:47:05.996Z,15.5
2023-03-23T13:48:27.078Z,15.5
2023-03-23T13:49:48.142Z,15.4
2023-03-23T13:51:08.207Z,15.5
2023-03-23T13:52:29.271Z,15.4
2023-03-23T13:53:50.000Z,15.5
2023-03-23T13:55:11.409Z,15.5
2023-03-23T13:56:32.493Z,15.4
2023-03-23T13:57:53.558Z,15.4
2023-03-23T13:59:14.626Z,15.4
2023-03-23T14:00:35.696Z,15.4
2023-03-23T14:01:56.000Z,15.4
2023-03-23T14:03:17.821Z,15.4
2023-03-23T14:04:38.000Z,15.4
2023-03-23T14:05:59.953Z,15.4
2023-03-23T14:07:21.022Z,15.3
2023-03-23T14:08:41.104Z,15.4
2023-03-23T14:10:02.000Z,15.3
2023-03-23T14:11:23.220Z,15.3
2023-03-23T14:12:44.300Z,15.4
2023-03-23T14:14:05.377Z,15.3
2023-03-23T14:15:26.446Z,15.3
2023-03-23T14:16:47.506Z,15.3
2023-03-23T14:18:08.000Z,15.3
2023-03-23T14:19:29.644Z,15.3
2023-03-23T14:20:50.000Z,15.3
2023-03-23T14:22:11.773Z,15.3
2023-03-23T14:23:32.000Z,15.3
2023-03-23T14:24:53.882Z,15.3
2023-03-23T14:26:13.962Z,15.3
2023-03-23T14:27:35.050Z,15.3
2023-03-23T14:28:56.093Z,15.2
2023-03-23T14:30:17.159Z,15.3
2023-03-23T14:31:38.225Z,15.2
2023-03-23T14:32:59.000Z,15.3
2023-03-23T14:34:20.000Z,15.3
2023-03-23T14:35:41.459Z,15.2
2023-03-23T14:37:02.000Z,15.2
2023-03-23T14:38:23.000Z,15.3
2023-03-23T14:39:44.000Z,15.2
2023-03-23T14:41:05.707Z,15.2
2023-03-23T14:42:26.769Z,15.3
2023-03-23T14:43:47.969Z,15.3
2023-03-23T14:45:09.044Z,15.3
2023-03-23T14:46:30.080Z,15.4
2023-03-23T14:47:51.000Z,15.4
2023-03-23T14:49:12.247Z,15.4
2023-03-23T14:50:33.000Z,15.4
2023-03-23T14:51:54.383Z,15.4
2023-03-23T14:53:15.431Z,15.4
2023-03-23T14:54:36.498Z,15.4
2023-03-23T14:55:57.587Z,15.3
2023-03-23T14:57:18.644Z,15.2
2023-03-23T14:58:39.000Z,15.3
2023-03-23T15:00:00.762Z,15.3
2023-03-23T15:01:20.000Z,15.3
2023-03-23T15:02:41.922Z,15.3
2023-03-23T15:04:02.997Z,15.2
2023-03-23T15:05:24.052Z,15.2
2023-03-23T15:06:45.000Z,15.3
2023-03-23T15:08:06.173Z,15.2
2023-03-23T15:09:27.000Z,15.2
2023-03-23T15:10:48.303Z,15.2
2023-03-23T15:12:09.365Z,15.2
2023-03-23T15:13:30.448Z,15.2
2023-03-23T15:14:51.501Z,15.2
2023-03-23T15:16:12.581Z,15.1
2023-03-23T15:17:33.000Z,15.1
2023-03-23T15:18:53.746Z,15.1
2023-03-23T15:20:14.811Z,15.1
2023-03-23T15:21:35.868Z,15.1
2023-03-23T15:22:56.939Z,15
2023-03-23T15:24:17.976Z,15
2023-03-23T15:25:39.075Z,15
2023-03-23T15:27:00.000Z,14.9
2023-03-23T15:28:21.000Z,14.9
2023-03-23T15:29:42.267Z,15
2023-03-23T15:31:03.000Z,14.9
2023-03-23T15:32:24.413Z,14.8
2023-03-23T15:33:45.464Z,15
2023-03-23T15:35:06.538Z,15
2023-03-23T15:36:26.608Z,15
2023-03-23T15:37:47.685Z,14.9
2023-03-23T15:39:08.742Z,14.9
2023-03-23T15:40:29.790Z,14.9
2023-03-23T15:41:50.000Z,14.9
2023-03-23T15:43:11.940Z,14.9
2023-03-23T15:44:33.000Z,14.9
2023-03-23T15:45:54.070Z,14.8
2023-03-23T15:47:15.000Z,14.7
2023-03-23T15:49:57.257Z,14.6
2023-03-23T15:51:18.333Z,14.7
2023-03-23T15:52:39.403Z,14.6
2023-03-23T15:53:59.470Z,14.5
2023-03-23T15:55:20.000Z,14.5
2023-03-23T15:56:41.619Z,14.5
2023-03-23T15:58:02.695Z,14.5
2023-03-23T15:59:23.757Z,14.4
2023-03-23T16:00:44.833Z,14.4
2023-03-23T16:02:05.880Z,14.5
2023-03-23T16:03:26.957Z,14.5
2023-03-23T16:04:48.026Z,14.5
2023-03-23T16:06:09.064Z,14.5
2023-03-23T16:07:30.130Z,14.5
2023-03-23T16:08:51.225Z,14.6
2023-03-23T16:10:12.266Z,14.7
2023-03-23T16:11:32.000Z,14.7
2023-03-23T16:12:53.454Z,14.7
2023-03-23T16:14:14.503Z,14.7
2023-03-23T16:15:35.568Z,14.8
2023-03-23T16:16:56.000Z,14.6
2023-03-23T16:18:17.717Z,14.8
2023-03-23T16:19:38.780Z,14.8
2023-03-23T16:20:59.849Z,14.8
2023-03-23T16:22:20.000Z,14.8
2023-03-23T16:23:41.966Z,14.8
2023-03-23T16:25:03.049Z,14.7
2023-03-23T16:26:24.110Z,14.7
2023-03-23T16:27:45.166Z,14.7
2023-03-23T16:29:05.249Z,14.6
2023-03-23T16:30:26.306Z,14.6
2023-03-23T16:31:47.385Z,14.6
2023-03-23T16:33:08.000Z,14.7
2023-03-23T16:34:29.523Z,14.6
2023-03-23T16:35:50.000Z,14.5
2023-03-23T16:37:11.645Z,14.5
2023-03-23T16:38:32.000Z,14.5
2023-03-23T16:39:53.781Z,14.3
2023-03-23T16:41:14.833Z,14.4
2023-03-23T16:42:35.901Z,14.3
2023-03-23T16:43:57.000Z,14.2
2023-03-23T16:45:18.055Z,14.1
2023-03-23T16:46:38.110Z,14.2
2023-03-23T16:47:59.209Z,14.1
2023-03-23T16:49:20.268Z,14.1
2023-03-23T16:50:41.332Z,14
2023-03-23T16:52:02.413Z,14
2023-03-23T16:53:23.466Z,13.9
2023-03-23T16:54:44.522Z,13.9
2023-03-23T16:56:05.606Z,13.8
2023-03-23T16:57:26.666Z,13.8
2023-03-23T16:58:47.733Z,13.7
2023-03-23T17:00:08.788Z,13.8
2023-03-23T17:01:29.873Z,13.7
2023-03-23T17:02:50.916Z,13.8
2023-03-23T17:04:11.002Z,13.9
2023-03-23T17:08:14.218Z,13.8
2023-03-23T17:09:35.302Z,13.8
2023-03-23T17:10:56.357Z,13.9
2023-03-23T17:12:17.424Z,13.9
2023-03-23T17:13:38.473Z,13.9
2023-03-23T17:14:59.557Z,13.8
2023-03-23T17:16:20.604Z,13.9
2023-03-23T17:17:41.692Z,14
2023-03-23T17:19:02.726Z,13.9
2023-03-23T17:20:23.798Z,13.9
2023-03-23T17:21:43.911Z,13.9
2023-03-23T17:23:04.961Z,13.9
2023-03-23T17:24:26.038Z,13.9
2023-03-23T17:25:47.113Z,13.8
2023-03-23T17:27:08.167Z,13.8
2023-03-23T17:28:29.217Z,13.7
2023-03-23T17:29:50.307Z,13.6
2023-03-23T17:31:11.379Z,13.6
2023-03-23T17:32:32.000Z,13.5
2023-03-23T17:33:53.512Z,13.5
2023-03-23T17:35:14.554Z,13.5
2023-03-23T17:36:35.639Z,13.4
2023-03-23T17:37:56.705Z,13.4
2023-03-23T17:39:16.793Z,13.3
2023-03-23T17:40:37.866Z,13.3
2023-03-23T17:41:58.922Z,13.2
2023-03-23T17:43:19.960Z,13.4
2023-03-23T17:44:41.039Z,13.4
2023-03-23T17:46:02.094Z,13.4
2023-03-23T17:47:23.170Z,13.4
2023-03-23T17:48:44.267Z,13.3
2023-03-23T17:50:05.324Z,13.3
2023-03-23T17:51:26.445Z,13.3
2023-03-23T17:52:47.493Z,13.3
2023-03-23T17:54:08.561Z,13.2
2023-03-23T17:55:29.650Z,13.2
2023-03-23T17:56:49.757Z,13.2
2023-03-23T17:58:10.854Z,13.1
2023-03-23T17:59:31.000Z,13.3
2023-03-23T18:00:53.085Z,13.1
2023-03-23T18:02:14.194Z,13.2
2023-03-23T18:03:35.291Z,13.1
2023-03-23T18:04:56.392Z,13.1
2023-03-23T18:06:17.533Z,13
2023-03-23T18:07:38.652Z,13
2023-03-23T18:08:59.752Z,13
2023-03-23T18:10:20.000Z,12.9
2023-03-23T18:11:41.972Z,12.9
2023-03-23T18:13:03.073Z,12.9
2023-03-23T18:14:24.272Z,12.9
2023-03-23T18:15:45.404Z,12.7
2023-03-23T18:17:06.525Z,12.7
2023-03-23T18:18:27.631Z,12.7
2023-03-23T18:19:48.745Z,12.7
2023-03-23T18:21:09.849Z,12.6
2023-03-23T18:22:29.993Z,12.7
2023-03-23T18:23:51.056Z,12.6
2023-03-23T18:25:12.189Z,12.6
2023-03-23T18:26:33.306Z,12.6
2023-03-23T18:27:54.416Z,12.5
2023-03-23T18:29:15.532Z,12.5
2023-03-23T18:30:36.627Z,12.6
2023-03-23T18:31:57.743Z,12.6
2023-03-23T18:33:18.859Z,12.6
2023-03-23T18:34:39.921Z,12.5
2023-03-23T18:36:01.057Z,12.5
2023-03-23T18:37:22.180Z,12.4
2023-03-23T18:38:43.288Z,12.3
2023-03-23T18:40:03.412Z,12.3
2023-03-23T18:41:24.518Z,12.3
2023-03-23T18:42:45.626Z,12.4
2023-03-23T18:44:06.746Z,12.4
2023-03-23T18:45:27.854Z,12.4
2023-03-23T18:46:48.963Z,12.1
2023-03-23T18:48:10.069Z,12.1
2023-03-23T18:49:31.172Z,12.1
2023-03-23T18:50:52.294Z,12
2023-03-23T18:52:13.389Z,11.9
2023-03-23T18:53:34.513Z,12.1
2023-03-23T18:54:55.611Z,11.9
2023-03-23T18:56:16.735Z,12
2023-03-23T18:57:36.845Z,11.8
2023-03-23T18:58:57.951Z,12
2023-03-23T19:00:19.034Z,11.9
2023-03-23T19:01:40.167Z,11.8
2023-03-23T19:03:01.291Z,11.9
2023-03-23T19:04:22.396Z,12
2023-03-23T19:05:43.472Z,11.9
2023-03-23T19:07:04.611Z,11.8
2023-03-23T19:08:25.691Z,11.9
2023-03-23T19:09:46.808Z,11.8
2023-03-23T19:11:07.905Z,11.8
2023-03-23T19:12:29.057Z,11.8
2023-03-23T19:13:50.153Z,11.9
2023-03-23T19:15:10.248Z,11.8
2023-03-23T19:16:31.387Z,12
2023-03-23T19:17:52.504Z,12.1
2023-03-23T19:19:13.612Z,12
2023-03-23T19:20:34.000Z,11.9
2023-03-23T19:21:55.806Z,11.9
2023-03-23T19:23:16.942Z,11.9
2023-03-23T19:24:38.033Z,11.8
2023-03-23T19:25:59.151Z,11.9
2023-03-23T19:27:20.232Z,11.8
2023-03-23T19:28:41.366Z,11.9
2023-03-23T19:30:02.468Z,11.9
2023-03-23T19:31:23.598Z,11.9
2023-03-23T19:32:43.727Z,11.9
2023-03-23T19:34:04.837Z,11.9
2023-03-23T19:35:25.947Z,11.9
2023-03-23T19:36:47.053Z,11.8
2023-03-23T19:38:08.175Z,11.8
2023-03-23T19:39:29.272Z,11.8
2023-03-23T19:40:50.389Z,11.9
2023-03-23T19:42:11.494Z,11.8
2023-03-23T19:43:32.608Z,11.8
2023-03-23T19:44:53.722Z,11.8
2023-03-23T19:46:14.822Z,12
2023-03-23T19:47:35.927Z,11.8
2023-03-23T19:48:57.040Z,11.8
2023-03-23T19:50:17.150Z,11.9
2023-03-23T19:51:38.259Z,11.9
2023-03-23T19:52:59.373Z,11.9
2023-03-23T19:54:20.478Z,12
2023-03-23T19:55:41.603Z,12
2023-03-23T19:57:02.694Z,12
2023-03-23T19:58:23.780Z,12.1
2023-03-23T19:59:44.894Z,12
2023-03-23T20:01:06.032Z,12.1
2023-03-23T20:02:27.143Z,12.1
2023-03-23T20:03:48.244Z,12.1
2023-03-23T20:05:09.323Z,12.1
2023-03-23T20:06:30.460Z,12.1
2023-03-23T20:07:50.556Z,12
2023-03-23T20:09:11.690Z,12
2023-03-23T20:10:32.814Z,11.9
2023-03-23T20:11:53.920Z,12
2023-03-23T20:13:14.998Z,12
2023-03-23T20:14:36.129Z,11.9
2023-03-23T20:15:57.246Z,11.9
2023-03-23T20:17:18.347Z,11.9
2023-03-23T20:18:39.427Z,11.9
2023-03-23T20:20:00.554Z,11.9
2023-03-23T20:21:21.640Z,11.9
2023-03-23T20:22:42.778Z,12
2023-03-23T20:24:03.893Z,12
2023-03-23T20:25:23.983Z,12
2023-03-23T20:26:45.118Z,12
2023-03-23T20:28:06.231Z,11.9
2023-03-23T20:29:27.342Z,12
2023-03-23T20:30:48.456Z,12
2023-03-23T20:32:09.558Z,12.1
2023-03-23T20:33:30.671Z,12
2023-03-23T20:34:51.786Z,11.9
2023-03-23T20:36:12.874Z,12
2023-03-23T20:37:33.985Z,12
2023-03-23T20:38:55.066Z,11.9
2023-03-23T20:40:16.207Z,11.9
2023-03-23T20:41:37.322Z,11.9
2023-03-23T20:42:57.446Z,11.9
2023-03-23T20:44:18.545Z,11.9
2023-03-23T20:45:39.669Z,11.9
2023-03-23T20:47:00.764Z,11.9
2023-03-23T20:48:21.869Z,11.8
2023-03-23T20:49:42.953Z,11.8
2023-03-23T20:51:04.064Z,11.6
2023-03-23T20:52:25.174Z,11.6
2023-03-23T20:53:46.303Z,11.7
2023-03-23T20:55:07.428Z,11.6
2023-03-23T20:56:28.530Z,11.5
2023-03-23T20:57:49.633Z,11.4
2023-03-23T20:59:10.708Z,11.4
2023-03-23T21:00:30.863Z,11.2
2023-03-23T21:01:51.972Z,11.4
2023-03-23T21:03:13.077Z,11.4
2023-03-23T21:04:34.190Z,11.3
2023-03-23T21:05:55.290Z,11.3
2023-03-23T21:07:16.410Z,11.4
2023-03-23T21:08:37.488Z,11.4
2023-03-23T21:09:58.590Z,11.3
2023-03-23T21:11:19.716Z,11.4
2023-03-23T21:12:40.839Z,11.5
2023-03-23T21:14:01.923Z,11.4
2023-03-23T21:15:23.000Z,11.6
2023-03-23T21:16:44.162Z,11.4
2023-03-23T21:18:04.288Z,11.5
2023-03-23T21:19:25.000Z,11.3
2023-03-23T21:20:46.475Z,11.3
2023-03-23T21:22:07.622Z,11.3
2023-03-23T21:23:28.727Z,11.5
2023-03-23T21:24:49.839Z,11.2
2023-03-23T21:26:10.932Z,11.3
2023-03-23T21:27:32.040Z,11.4
2023-03-23T21:28:53.134Z,11.3
2023-03-23T21:30:14.239Z,11.4
2023-03-23T21:31:35.362Z,11.2
2023-03-23T21:46:56.336Z,11.1
2023-03-23T22:02:17.308Z,11.3
2023-03-23T22:17:37.000Z,11.5
2023-03-23T22:32:58.241Z,11.5
2023-03-23T22:48:19.207Z,11.4
2023-03-23T23:03:40.139Z,11.5
2023-03-23T23:19:01.144Z,11.3
2023-03-23T23:34:22.000Z,11.3
2023-03-23T23:49:43.028Z,11.3
